首页
METAR-TAF:

METAR-TAF

机场 :

霍巴特國際機場

荷巴特, 澳大利亚

纬度: 42-50S, 经度: 147-29E, 海拔: 4米

当前天气观测

该预报发布于24分钟前的01:30 UTC
风速12节,风向西北
温度 14°C
湿度 47%
气压 1006 hPa
能见度10公里或以上
少量云层高于4500英尺

METAR: YMHB 310130Z 32012KT 9999 FEW045 14/03 Q1006

时间: 11:54 (01:54 UTC)

预报

该预报发布于2小时和37分钟前的23:17 UTC
预报有效从31日的 00点(UTC)到 01日的 00点(UTC)
风速10节,风向北转西北
能见度10公里或以上
1500米以下无云,无积雨云

TAF: YMHB 302317Z 3100/0100 34010KT CAVOK

超过4000个机场的气象观测和天气预报(METAR&TAF报告)。

可查询的气象台以黄色和红色小点在地图上表示。

将鼠标移到小点上方,可查看气象台名称。

然后点击查看天气观测和预报。

如需切换地图:点击带黑十字的绿色按钮放大地图;点击带横线的绿色按钮缩小地图;或者点击绿色箭头查看邻近地区的地图。


METAR-TAF: